Station History

Weather Underground - logo

Station Historical Data
Daily Summary for October 30, 2017 Units:  English    Metric   Both
« Previous Day
Next Day »
Daily Weekly Monthly Yearly Custom
  High: Low: Average:
Temperature: 77.4 °F 53.3 °F 64 °F
Dew Point: 58.6 °F 49.4 °F 54.8 °F
Humidity: 93 % 48 % 74 %
Wind Speed: 3.5 mph 0.0 mph 0.5 mph
Wind Gust: 3.5 mph - -
Wind:- - SSE
Pressure: 29.83 in 29.70 in -
Precipitation: 0.00 in    
Historical Graphs
 
 
Tabular Data for October 30, 2017
Time Temperature Dew Point Pressure Wind Wind Speed Wind Gust Humidity Rainfall Rate (Hourly)
00:01 62.1 °F 57.2 °F 29.79 in Calm     84 % 0.00 in
00:06 62.0 °F 57.1 °F 29.79 in Calm     84 % 0.00 in
00:11 61.9 °F 57.0 °F 29.79 in Calm     84 % 0.00 in
00:16 62.0 °F 57.1 °F 29.79 in Calm     84 % 0.00 in
00:21 62.0 °F 57.1 °F 29.79 in Calm     84 % 0.00 in
00:26 62.0 °F 57.1 °F 29.79 in Calm     84 % 0.00 in
00:31 62.1 °F 57.2 °F 29.79 in Calm     84 % 0.00 in
00:36 62.0 °F 57.1 °F 29.79 in Calm     84 % 0.00 in
00:41 61.9 °F 57.0 °F 29.79 in Calm     84 % 0.00 in
00:46 61.9 °F 57.3 °F 29.79 in Calm     85 % 0.00 in
00:51 61.7 °F 57.1 °F 29.79 in Calm     85 % 0.00 in
00:56 61.5 °F 57.3 °F 29.79 in Calm     86 % 0.00 in
01:01 61.2 °F 57.0 °F 29.79 in Calm     86 % 0.00 in
01:06 60.9 °F 56.7 °F 29.79 in Calm     86 % 0.00 in
01:07 60.8 °F 56.6 °F 29.79 in Calm     86 % 0.00 in
01:12 60.5 °F 56.6 °F 29.79 in Calm     87 % 0.00 in
01:17 60.4 °F 56.8 °F 29.79 in Calm     88 % 0.00 in
01:22 60.3 °F 56.7 °F 29.79 in Calm     88 % 0.00 in
01:27 60.3 °F 56.7 °F 29.79 in Calm     88 % 0.00 in
01:32 60.2 °F 56.9 °F 29.79 in Calm     89 % 0.00 in
01:37 60.1 °F 56.8 °F 29.79 in Calm     89 % 0.00 in
01:42 59.9 °F 56.6 °F 29.79 in Calm     89 % 0.00 in
01:47 59.7 °F 56.5 °F 29.79 in Calm     89 % 0.00 in
01:52 59.5 °F 56.3 °F 29.79 in Calm     89 % 0.00 in
01:57 59.3 °F 56.1 °F 29.79 in Calm     89 % 0.00 in
02:02 59.1 °F 55.9 °F 29.79 in Calm     89 % 0.00 in
02:07 59.0 °F 56.1 °F 29.79 in Calm     90 % 0.00 in
02:12 59.0 °F 56.1 °F 29.79 in Calm     90 % 0.00 in
02:17 58.9 °F 56.0 °F 29.79 in Calm     90 % 0.00 in
02:22 58.8 °F 55.9 °F 29.79 in Calm     90 % 0.00 in
02:27 58.7 °F 55.8 °F 29.79 in Calm     90 % 0.00 in
02:32 58.6 °F 55.7 °F 29.79 in Calm     90 % 0.00 in
02:37 58.7 °F 55.8 °F 29.79 in Calm     90 % 0.00 in
02:42 59.0 °F 56.1 °F 29.79 in Calm     90 % 0.00 in
02:47 59.1 °F 55.9 °F 29.79 in Calm     89 % 0.00 in
02:52 59.0 °F 55.8 °F 29.79 in Calm     89 % 0.00 in
02:57 58.8 °F 55.6 °F 29.79 in Calm     89 % 0.00 in
03:02 58.5 °F 55.3 °F 29.79 in Calm     89 % 0.00 in
03:07 58.4 °F 55.2 °F 29.79 in Calm     89 % 0.00 in
03:12 58.3 °F 55.1 °F 29.79 in Calm     89 % 0.00 in
03:17 58.2 °F 55.0 °F 29.79 in Calm     89 % 0.00 in
03:22 58.1 °F 54.9 °F 29.79 in Calm     89 % 0.00 in
03:27 58.1 °F 54.9 °F 29.79 in Calm     89 % 0.00 in
03:32 58.0 °F 54.8 °F 29.79 in Calm     89 % 0.00 in
03:37 58.0 °F 55.1 °F 29.79 in Calm     90 % 0.00 in
03:47 58.1 °F 54.9 °F 29.78 in Calm     89 % 0.00 in
03:52 58.0 °F 54.8 °F 29.78 in Calm     89 % 0.00 in
03:57 57.8 °F 54.6 °F 29.79 in Calm     89 % 0.00 in
04:02 57.7 °F 54.8 °F 29.78 in Calm     90 % 0.00 in
04:07 57.6 °F 54.7 °F 29.78 in Calm     90 % 0.00 in
04:12 57.5 °F 54.6 °F 29.78 in Calm     90 % 0.00 in
04:17 57.4 °F 54.5 °F 29.78 in Calm     90 % 0.00 in
04:22 57.4 °F 54.5 °F 29.78 in Calm     90 % 0.00 in
04:27 57.4 °F 54.5 °F 29.79 in Calm     90 % 0.00 in
04:32 57.4 °F 54.5 °F 29.79 in Calm     90 % 0.00 in
04:37 57.4 °F 54.5 °F 29.79 in Calm     90 % 0.00 in
04:43 57.3 °F 54.4 °F 29.79 in Calm     90 % 0.00 in
04:48 57.2 °F 54.3 °F 29.79 in Calm     90 % 0.00 in
04:52 57.2 °F 54.3 °F 29.79 in Calm     90 % 0.00 in
04:57 57.0 °F 54.1 °F 29.79 in Calm     90 % 0.00 in
05:03 57.0 °F 54.1 °F 29.79 in Calm     90 % 0.00 in
05:07 56.9 °F 54.0 °F 29.79 in SE 1.2 mph   90 % 0.00 in
05:13 56.7 °F 53.8 °F 29.80 in Calm     90 % 0.00 in
05:18 56.5 °F 53.6 °F 29.79 in SE 1.2 mph   90 % 0.00 in
05:23 56.3 °F 53.4 °F 29.79 in Calm     90 % 0.00 in
05:28 56.1 °F 53.2 °F 29.80 in Calm     90 % 0.00 in
05:33 55.9 °F 53.0 °F 29.80 in Calm     90 % 0.00 in
05:38 55.7 °F 52.8 °F 29.80 in Calm     90 % 0.00 in
05:43 55.5 °F 52.6 °F 29.80 in Calm     90 % 0.00 in
05:48 55.3 °F 52.4 °F 29.80 in Calm     90 % 0.00 in
05:53 55.2 °F 52.6 °F 29.80 in Calm     91 % 0.00 in
05:58 55.2 °F 52.6 °F 29.80 in Calm     91 % 0.00 in
06:03 55.2 °F 52.6 °F 29.80 in Calm     91 % 0.00 in
06:08 55.2 °F 52.6 °F 29.80 in Calm     91 % 0.00 in
06:13 55.1 °F 52.2 °F 29.80 in Calm     90 % 0.00 in
06:18 55.1 °F 52.5 °F 29.80 in Calm     91 % 0.00 in
06:23 55.1 °F 52.2 °F 29.80 in Calm     90 % 0.00 in
06:33 55.0 °F 52.1 °F 29.80 in Calm     90 % 0.00 in
06:38 54.8 °F 51.9 °F 29.80 in Calm     90 % 0.00 in
06:43 54.7 °F 51.8 °F 29.80 in Calm     90 % 0.00 in
06:48 54.5 °F 51.9 °F 29.80 in Calm     91 % 0.00 in
06:58 54.2 °F 51.6 °F 29.81 in Calm     91 % 0.00 in
07:03 54.1 °F 51.5 °F 29.81 in Calm     91 % 0.00 in
07:08 54.0 °F 51.4 °F 29.81 in Calm     91 % 0.00 in
07:13 54.0 °F 51.7 °F 29.80 in Calm     92 % 0.00 in
07:18 54.0 °F 51.7 °F 29.81 in Calm     92 % 0.00 in
07:23 54.0 °F 51.7 °F 29.81 in Calm     92 % 0.00 in
07:28 53.8 °F 51.2 °F 29.81 in Calm     91 % 0.00 in
07:33 53.7 °F 51.4 °F 29.81 in Calm     92 % 0.00 in
07:38 53.7 °F 51.4 °F 29.82 in Calm     92 % 0.00 in
07:43 53.6 °F 51.3 °F 29.82 in Calm     92 % 0.00 in
07:48 53.5 °F 51.2 °F 29.81 in Calm     92 % 0.00 in
07:53 53.7 °F 51.4 °F 29.81 in Calm     92 % 0.00 in
07:58 53.9 °F 51.9 °F 29.81 in Calm     93 % 0.00 in
08:03 54.1 °F 52.1 °F 29.81 in Calm     93 % 0.00 in
08:08 54.6 °F 52.6 °F 29.81 in SE 1.0 mph   93 % 0.00 in
08:13 55.3 °F 52.7 °F 29.82 in Calm     91 % 0.00 in
08:18 56.2 °F 53.3 °F 29.82 in Calm     90 % 0.00 in
08:23 56.8 °F 53.6 °F 29.82 in Calm     89 % 0.00 in
08:28 57.2 °F 54.0 °F 29.82 in Calm     89 % 0.00 in
08:33 58.0 °F 54.5 °F 29.82 in Calm     88 % 0.00 in
08:38 58.9 °F 54.4 °F 29.83 in Calm     85 % 0.00 in
08:43 59.8 °F 54.6 °F 29.83 in Calm     83 % 0.00 in
08:53 61.6 °F 54.7 °F 29.83 in Calm     78 % 0.00 in
08:58 62.1 °F 54.8 °F 29.83 in Calm     77 % 0.00 in
09:03 62.6 °F 55.3 °F 29.83 in Calm     77 % 0.00 in
09:08 64.1 °F 55.6 °F 29.83 in Calm     74 % 0.00 in
09:13 64.6 °F 55.7 °F 29.83 in SSE 1.2 mph   73 % 0.00 in
09:18 65.2 °F 56.3 °F 29.83 in Calm     73 % 0.00 in
09:23 65.8 °F 56.5 °F 29.83 in Calm     72 % 0.00 in
09:28 66.2 °F 56.1 °F 29.83 in Calm     70 % 0.00 in
09:33 66.4 °F 55.9 °F 29.83 in Calm     69 % 0.00 in
09:38 66.7 °F 56.2 °F 29.83 in South 2.0 mph 2.0 mph 69 % 0.00 in
09:43 66.8 °F 55.9 °F 29.83 in ESE 1.2 mph 1.2 mph 68 % 0.00 in
09:48 67.3 °F 56.4 °F 29.83 in SE 1.2 mph   68 % 0.00 in
09:53 67.8 °F 56.9 °F 29.82 in Calm   0.2 mph 68 % 0.00 in
09:58 67.9 °F 56.5 °F 29.82 in SE 2.0 mph 2.0 mph 67 % 0.00 in
10:03 67.9 °F 56.5 °F 29.82 in SSE 1.0 mph 1.0 mph 67 % 0.00 in
10:08 67.9 °F 56.1 °F 29.82 in East 3.5 mph 3.5 mph 66 % 0.00 in
10:13 68.3 °F 56.5 °F 29.82 in SE 2.3 mph 2.3 mph 66 % 0.00 in
10:18 68.8 °F 56.6 °F 29.82 in SSE 2.3 mph 2.3 mph 65 % 0.00 in
10:23 69.2 °F 56.5 °F 29.82 in ESE 1.2 mph   64 % 0.00 in
10:28 69.4 °F 56.7 °F 29.82 in SE 3.5 mph   64 % 0.00 in
10:33 70.0 °F 56.8 °F 29.82 in SSE 1.2 mph 1.2 mph 63 % 0.00 in
10:43 70.2 °F 57.0 °F 29.81 in SSE 1.2 mph   63 % 0.00 in
10:48 70.7 °F 57.5 °F 29.81 in SSE 1.0 mph 1.0 mph 63 % 0.00 in
10:53 71.2 °F 57.1 °F 29.81 in South 2.3 mph 2.3 mph 61 % 0.00 in
10:58 71.9 °F 57.7 °F 29.81 in South 2.3 mph 2.3 mph 61 % 0.00 in
11:03 72.2 °F 57.1 °F 29.81 in East 2.3 mph 2.3 mph 59 % 0.00 in
11:08 71.6 °F 57.0 °F 29.81 in South 2.3 mph 2.3 mph 60 % 0.00 in
11:13 71.5 °F 56.9 °F 29.81 in WSW 1.2 mph 1.2 mph 60 % 0.00 in
11:18 71.0 °F 56.4 °F 29.81 in East 1.2 mph 1.2 mph 60 % 0.00 in
11:23 70.8 °F 56.7 °F 29.81 in ESE 1.2 mph 1.2 mph 61 % 0.00 in
11:28 71.2 °F 56.6 °F 29.81 in South 2.3 mph 2.3 mph 60 % 0.00 in
11:33 71.0 °F 56.4 °F 29.81 in North 2.0 mph 2.0 mph 60 % 0.00 in
11:38 71.3 °F 56.7 °F 29.81 in SSE 3.5 mph 3.5 mph 60 % 0.00 in
11:43 71.9 °F 56.8 °F 29.80 in SSE 3.5 mph 3.5 mph 59 % 0.00 in
11:48 72.4 °F 57.3 °F 29.80 in ESE 2.0 mph 2.0 mph 59 % 0.00 in
11:53 72.9 °F 56.8 °F 29.80 in South 2.3 mph 2.3 mph 57 % 0.00 in
12:03 73.2 °F 56.1 °F 29.80 in SW 2.3 mph   55 % 0.00 in
12:08 73.5 °F 57.3 °F 29.80 in Calm   0.2 mph 57 % 0.00 in
12:14 74.1 °F 57.4 °F 29.79 in West 2.3 mph   56 % 0.00 in
12:19 74.4 °F 57.2 °F 29.79 in SSE 3.5 mph 3.5 mph 55 % 0.00 in
12:24 74.3 °F 56.6 °F 29.79 in SE 1.2 mph 1.2 mph 54 % 0.00 in
12:29 74.2 °F 57.0 °F 29.78 in ESE 2.3 mph 2.3 mph 55 % 0.00 in
12:34 74.3 °F 57.1 °F 29.78 in SSE 2.3 mph 2.3 mph 55 % 0.00 in
12:39 74.3 °F 56.6 °F 29.77 in ENE 1.2 mph 1.2 mph 54 % 0.00 in
12:44 73.9 °F 56.7 °F 29.78 in SSE 2.3 mph 2.3 mph 55 % 0.00 in
12:54 73.3 °F 57.1 °F 29.77 in East 2.3 mph 2.3 mph 57 % 0.00 in
12:59 74.0 °F 56.3 °F 29.77 in ESE 3.0 mph 3.0 mph 54 % 0.00 in
13:09 75.1 °F 56.8 °F 29.76 in East 3.5 mph 3.5 mph 53 % 0.00 in
13:14 75.3 °F 56.5 °F 29.76 in South 3.5 mph 3.5 mph 52 % 0.00 in
13:19 75.1 °F 56.8 °F 29.76 in SE 3.5 mph 3.5 mph 53 % 0.00 in
13:24 74.7 °F 56.9 °F 29.76 in South 1.2 mph 1.2 mph 54 % 0.00 in
13:29 74.5 °F 56.8 °F 29.76 in SSE 1.2 mph 1.2 mph 54 % 0.00 in
13:34 74.1 °F 56.9 °F 29.76 in SSW 1.2 mph 1.2 mph 55 % 0.00 in
13:39 74.1 °F 56.9 °F 29.75 in SE 2.3 mph 2.3 mph 55 % 0.00 in
13:44 74.2 °F 57.0 °F 29.75 in Calm     55 % 0.00 in
13:49 74.7 °F 57.5 °F 29.75 in Calm     55 % 0.00 in
13:54 74.8 °F 56.5 °F 29.75 in SSE 1.2 mph 1.2 mph 53 % 0.00 in
14:04 75.7 °F 57.4 °F 29.75 in ESE 3.5 mph 3.5 mph 53 % 0.00 in
14:09 76.1 °F 57.7 °F 29.74 in SW 1.2 mph 1.2 mph 53 % 0.00 in
14:14 76.8 °F 57.8 °F 29.74 in Calm     52 % 0.00 in
14:19 76.9 °F 57.4 °F 29.74 in NNW 1.2 mph   51 % 0.00 in
14:24 76.2 °F 56.2 °F 29.74 in NW 1.2 mph 1.2 mph 50 % 0.00 in
14:29 75.4 °F 57.1 °F 29.74 in Calm     53 % 0.00 in
14:34 75.5 °F 57.2 °F 29.74 in SE 1.2 mph 1.2 mph 53 % 0.00 in
14:39 75.7 °F 57.4 °F 29.74 in Calm     53 % 0.00 in
14:44 75.8 °F 56.4 °F 29.74 in SE 1.2 mph 1.2 mph 51 % 0.00 in
14:49 76.1 °F 56.1 °F 29.74 in Calm     50 % 0.00 in
14:54 76.6 °F 56.6 °F 29.73 in North 1.2 mph 1.2 mph 50 % 0.00 in
15:04 76.8 °F 55.6 °F 29.73 in Calm     48 % 0.00 in
15:09 77.1 °F 56.5 °F 29.73 in South 1.2 mph 1.2 mph 49 % 0.00 in
15:14 77.4 °F 56.2 °F 29.73 in SE 1.2 mph 1.2 mph 48 % 0.00 in
15:19 77.2 °F 56.0 °F 29.73 in SE 1.2 mph 1.2 mph 48 % 0.00 in
15:24 77.0 °F 56.4 °F 29.73 in Calm     49 % 0.00 in
15:29 77.0 °F 56.4 °F 29.73 in SSE 1.2 mph   49 % 0.00 in
15:34 77.2 °F 57.1 °F 29.73 in ESE 1.2 mph 1.2 mph 50 % 0.00 in
15:39 77.2 °F 56.0 °F 29.73 in Calm     48 % 0.00 in
15:44 77.3 °F 56.1 °F 29.73 in SE 1.2 mph 1.2 mph 48 % 0.00 in
15:49 77.3 °F 56.1 °F 29.73 in East 1.2 mph   48 % 0.00 in
15:59 77.2 °F 56.0 °F 29.73 in SSW 1.2 mph 1.2 mph 48 % 0.00 in
16:04 76.6 °F 55.4 °F 29.72 in ESE 1.2 mph 1.2 mph 48 % 0.00 in
16:09 76.5 °F 56.5 °F 29.72 in Calm     50 % 0.00 in
16:14 76.3 °F 55.7 °F 29.72 in Calm     49 % 0.00 in
16:19 76.4 °F 56.4 °F 29.72 in Calm     50 % 0.00 in
16:24 76.4 °F 55.8 °F 29.72 in Calm     49 % 0.00 in
16:29 76.2 °F 56.2 °F 29.72 in Calm     50 % 0.00 in
16:30 76.2 °F 56.2 °F 29.72 in Calm     50 % 0.00 in
16:35 76.1 °F 55.5 °F 29.72 in Calm     49 % 0.00 in
16:40 75.8 °F 55.3 °F 29.72 in Calm     49 % 0.00 in
16:45 75.6 °F 56.2 °F 29.71 in Calm     51 % 0.00 in
16:50 75.5 °F 56.6 °F 29.71 in Calm     52 % 0.00 in
16:55 75.3 °F 56.5 °F 29.71 in Calm     52 % 0.00 in
17:00 75.0 °F 56.7 °F 29.71 in Calm     53 % 0.00 in
17:05 74.8 °F 56.0 °F 29.71 in Calm     52 % 0.00 in
17:10 74.6 °F 55.8 °F 29.71 in Calm     52 % 0.00 in
17:15 74.4 °F 55.1 °F 29.71 in Calm     51 % 0.00 in
17:20 74.2 °F 56.0 °F 29.71 in Calm     53 % 0.00 in
17:25 74.0 °F 55.3 °F 29.71 in Calm     52 % 0.00 in
17:30 73.8 °F 56.6 °F 29.71 in Calm     55 % 0.00 in
17:35 73.5 °F 55.8 °F 29.70 in Calm     54 % 0.00 in
17:40 73.2 °F 57.1 °F 29.70 in Calm     57 % 0.00 in
17:45 72.8 °F 57.6 °F 29.70 in Calm     59 % 0.00 in
17:50 72.1 °F 57.4 °F 29.70 in Calm     60 % 0.00 in
17:55 71.5 °F 57.3 °F 29.70 in Calm     61 % 0.00 in
18:00 70.9 °F 58.1 °F 29.71 in Calm     64 % 0.00 in
18:05 70.1 °F 57.8 °F 29.71 in Calm     65 % 0.00 in
18:10 69.6 °F 58.6 °F 29.71 in Calm     68 % 0.00 in
18:15 69.0 °F 57.2 °F 29.71 in Calm     66 % 0.00 in
18:20 68.6 °F 57.2 °F 29.71 in Calm     67 % 0.00 in
18:25 68.3 °F 57.7 °F 29.71 in Calm     69 % 0.00 in
18:30 68.0 °F 57.4 °F 29.71 in Calm     69 % 0.00 in
18:35 67.9 °F 57.4 °F 29.71 in Calm     69 % 0.00 in
18:40 67.8 °F 56.9 °F 29.71 in Calm     68 % 0.00 in
18:45 67.6 °F 56.2 °F 29.71 in Calm     67 % 0.00 in
18:50 67.3 °F 56.8 °F 29.71 in Calm     69 % 0.00 in
18:56 66.9 °F 57.2 °F 29.71 in Calm     71 % 0.00 in
19:01 66.4 °F 57.1 °F 29.71 in Calm     72 % 0.00 in
19:06 66.0 °F 56.7 °F 29.72 in Calm     72 % 0.00 in
19:11 65.7 °F 56.4 °F 29.72 in Calm     72 % 0.00 in
19:16 65.3 °F 56.0 °F 29.72 in Calm     72 % 0.00 in
19:21 64.8 °F 56.3 °F 29.72 in Calm     74 % 0.00 in
19:26 64.4 °F 56.3 °F 29.73 in Calm     75 % 0.00 in
19:31 63.9 °F 55.8 °F 29.73 in Calm     75 % 0.00 in
19:36 63.6 °F 55.5 °F 29.73 in Calm     75 % 0.00 in
19:41 63.3 °F 55.2 °F 29.73 in Calm     75 % 0.00 in
19:46 62.9 °F 54.5 °F 29.73 in Calm     74 % 0.00 in
19:51 62.5 °F 54.1 °F 29.73 in Calm     74 % 0.00 in
19:56 62.3 °F 53.5 °F 29.74 in SE 1.2 mph 1.2 mph 73 % 0.00 in
20:01 62.2 °F 53.4 °F 29.74 in SE 1.2 mph   73 % 0.00 in
20:06 62.1 °F 53.3 °F 29.75 in SE 1.2 mph 1.2 mph 73 % 0.00 in
20:12 61.9 °F 53.1 °F 29.75 in Calm     73 % 0.00 in
20:17 61.7 °F 53.0 °F 29.75 in Calm     73 % 0.00 in
20:22 61.4 °F 53.0 °F 29.76 in SE 1.2 mph 1.2 mph 74 % 0.00 in
20:23 61.3 °F 52.9 °F 29.76 in SE 1.2 mph   74 % 0.00 in
20:27 61.1 °F 52.7 °F 29.76 in SE 1.2 mph   74 % 0.00 in
20:28 61.1 °F 52.7 °F 29.76 in SSE 1.2 mph   74 % 0.00 in
20:29 61.1 °F 52.7 °F 29.76 in SSE 1.2 mph   74 % 0.00 in
20:34 60.8 °F 52.8 °F 29.76 in Calm   0.3 mph 75 % 0.00 in
20:39 60.5 °F 52.5 °F 29.76 in Calm     75 % 0.00 in
20:44 60.4 °F 52.4 °F 29.76 in ESE 3.5 mph   75 % 0.00 in
20:49 60.2 °F 52.2 °F 29.76 in Calm     75 % 0.00 in
20:54 60.1 °F 51.8 °F 29.77 in Calm     74 % 0.00 in
20:59 60.1 °F 51.8 °F 29.76 in Calm     74 % 0.00 in
21:04 59.9 °F 52.0 °F 29.76 in ESE 2.3 mph 2.3 mph 75 % 0.00 in
21:09 59.7 °F 51.4 °F 29.77 in Calm     74 % 0.00 in
21:14 59.6 °F 51.7 °F 29.77 in Calm     75 % 0.00 in
21:19 59.5 °F 51.6 °F 29.77 in Calm   0.3 mph 75 % 0.00 in
21:24 59.2 °F 51.3 °F 29.77 in East 1.2 mph   75 % 0.00 in
21:29 59.1 °F 51.5 °F 29.77 in Calm     76 % 0.00 in
21:34 58.8 °F 51.2 °F 29.77 in Calm     76 % 0.00 in
21:39 58.5 °F 51.3 °F 29.77 in Calm   0.2 mph 77 % 0.00 in
21:45 58.3 °F 51.1 °F 29.77 in Calm     77 % 0.00 in
21:50 58.1 °F 51.3 °F 29.78 in Calm     78 % 0.00 in
21:55 57.9 °F 51.1 °F 29.78 in Calm     78 % 0.00 in
22:00 57.6 °F 51.1 °F 29.78 in Calm     79 % 0.00 in
22:05 57.4 °F 50.9 °F 29.78 in Calm     79 % 0.00 in
22:10 57.1 °F 51.0 °F 29.78 in Calm     80 % 0.00 in
22:15 56.9 °F 50.8 °F 29.78 in Calm     80 % 0.00 in
22:20 56.6 °F 50.8 °F 29.78 in Calm     81 % 0.00 in
22:25 56.4 °F 50.6 °F 29.78 in Calm     81 % 0.00 in
22:30 56.3 °F 50.5 °F 29.78 in Calm     81 % 0.00 in
22:35 56.1 °F 50.7 °F 29.78 in Calm     82 % 0.00 in
22:40 55.9 °F 50.5 °F 29.78 in Calm     82 % 0.00 in
22:45 55.7 °F 50.3 °F 29.78 in Calm     82 % 0.00 in
22:46 55.7 °F 50.3 °F 29.78 in Calm   0.1 mph 82 % 0.00 in
22:51 55.5 °F 50.1 °F 29.78 in Calm     82 % 0.00 in
22:56 55.4 °F 50.3 °F 29.79 in East 1.2 mph   83 % 0.00 in
23:01 55.3 °F 50.2 °F 29.79 in Calm     83 % 0.00 in
23:06 55.1 °F 50.0 °F 29.79 in East 1.2 mph   83 % 0.00 in
23:11 54.8 °F 50.1 °F 29.79 in Calm     84 % 0.00 in
23:16 54.6 °F 49.9 °F 29.79 in Calm     84 % 0.00 in
23:21 54.4 °F 50.0 °F 29.80 in Calm     85 % 0.00 in
23:26 54.2 °F 49.8 °F 29.80 in Calm     85 % 0.00 in
23:31 54.1 °F 49.7 °F 29.80 in Calm     85 % 0.00 in
23:36 53.9 °F 49.5 °F 29.80 in Calm     85 % 0.00 in
23:41 53.8 °F 49.7 °F 29.80 in Calm     86 % 0.00 in
23:46 53.7 °F 49.6 °F 29.80 in Calm     86 % 0.00 in
23:51 53.5 °F 49.4 °F 29.81 in Calm     86 % 0.00 in
23:56 53.3 °F 49.5 °F 29.81 in Calm     87 % 0.00 in
Park Place, Exeter, Tulare County, California, USA
Compliments of Weather Underground - 2.75 mb